sensor_id;sensor_type;location;lat;lon;timestamp;P1;durP1;ratioP1;P2;durP2;ratioP2
35644;SDS011;21764;52.042;6.830;2023-11-21T00:04:51;62.88;;;27.50;;
35644;SDS011;21764;52.042;6.830;2023-11-21T00:09:52;63.58;;;28.35;;
35644;SDS011;21764;52.042;6.830;2023-11-21T00:14:55;72.35;;;30.80;;
35644;SDS011;21764;52.042;6.830;2023-11-21T00:19:56;71.20;;;31.00;;
35644;SDS011;21764;52.042;6.830;2023-11-21T00:24:57;75.78;;;33.78;;
35644;SDS011;21764;52.042;6.830;2023-11-21T00:29:58;81.68;;;32.60;;
35644;SDS011;21764;52.042;6.830;2023-11-21T00:34:59;82.38;;;33.00;;
35644;SDS011;21764;52.042;6.830;2023-11-21T00:40:01;70.40;;;32.38;;
35644;SDS011;21764;52.042;6.830;2023-11-21T00:45:05;73.55;;;33.78;;
35644;SDS011;21764;52.042;6.830;2023-11-21T00:50:07;79.80;;;34.13;;
35644;SDS011;21764;52.042;6.830;2023-11-21T00:55:08;81.78;;;36.35;;
35644;SDS011;21764;52.042;6.830;2023-11-21T01:00:10;83.95;;;35.25;;
35644;SDS011;21764;52.042;6.830;2023-11-21T01:05:16;80.07;;;36.20;;
35644;SDS011;21764;52.042;6.830;2023-11-21T01:10:18;94.72;;;37.10;;
35644;SDS011;21764;52.042;6.830;2023-11-21T01:15:19;101.32;;;38.72;;
35644;SDS011;21764;52.042;6.830;2023-11-21T01:20:20;90.05;;;37.08;;
35644;SDS011;21764;52.042;6.830;2023-11-21T01:25:21;98.88;;;38.22;;
35644;SDS011;21764;52.042;6.830;2023-11-21T01:30:22;102.15;;;39.28;;
35644;SDS011;21764;52.042;6.830;2023-11-21T01:35:23;113.85;;;41.47;;
35644;SDS011;21764;52.042;6.830;2023-11-21T01:40:24;106.80;;;39.75;;
35644;SDS011;21764;52.042;6.830;2023-11-21T01:45:25;99.68;;;39.42;;
35644;SDS011;21764;52.042;6.830;2023-11-21T01:50:26;99.82;;;40.90;;
35644;SDS011;21764;52.042;6.830;2023-11-21T01:55:28;121.57;;;41.33;;
35644;SDS011;21764;52.042;6.830;2023-11-21T02:00:30;101.63;;;39.97;;
35644;SDS011;21764;52.042;6.830;2023-11-21T02:05:31;101.20;;;37.70;;
35644;SDS011;21764;52.042;6.830;2023-11-21T02:10:32;104.07;;;39.60;;
35644;SDS011;21764;52.042;6.830;2023-11-21T02:15:33;95.38;;;36.45;;
35644;SDS011;21764;52.042;6.830;2023-11-21T02:20:34;89.82;;;36.35;;
35644;SDS011;21764;52.042;6.830;2023-11-21T02:25:37;92.05;;;37.22;;
35644;SDS011;21764;52.042;6.830;2023-11-21T02:30:38;100.03;;;38.17;;
35644;SDS011;21764;52.042;6.830;2023-11-21T02:35:39;99.75;;;40.63;;
35644;SDS011;21764;52.042;6.830;2023-11-21T02:40:40;106.78;;;39.85;;
35644;SDS011;21764;52.042;6.830;2023-11-21T02:45:41;85.00;;;38.58;;
35644;SDS011;21764;52.042;6.830;2023-11-21T02:50:42;109.55;;;41.38;;
35644;SDS011;21764;52.042;6.830;2023-11-21T02:55:43;106.00;;;39.03;;
35644;SDS011;21764;52.042;6.830;2023-11-21T03:00:44;109.13;;;39.70;;
35644;SDS011;21764;52.042;6.830;2023-11-21T03:05:46;108.32;;;39.42;;
35644;SDS011;21764;52.042;6.830;2023-11-21T03:10:47;114.32;;;42.25;;
35644;SDS011;21764;52.042;6.830;2023-11-21T03:15:48;117.40;;;42.25;;
35644;SDS011;21764;52.042;6.830;2023-11-21T03:20:51;114.75;;;42.13;;
35644;SDS011;21764;52.042;6.830;2023-11-21T03:25:53;126.13;;;43.70;;
35644;SDS011;21764;52.042;6.830;2023-11-21T03:30:54;106.93;;;42.22;;
35644;SDS011;21764;52.042;6.830;2023-11-21T03:35:55;124.65;;;42.90;;
35644;SDS011;21764;52.042;6.830;2023-11-21T03:40:56;121.30;;;43.17;;
35644;SDS011;21764;52.042;6.830;2023-11-21T03:45:57;120.13;;;43.63;;
35644;SDS011;21764;52.042;6.830;2023-11-21T03:50:58;128.52;;;45.33;;
35644;SDS011;21764;52.042;6.830;2023-11-21T03:56:02;148.90;;;46.80;;
35644;SDS011;21764;52.042;6.830;2023-11-21T04:01:03;180.70;;;48.55;;
35644;SDS011;21764;52.042;6.830;2023-11-21T04:06:05;170.07;;;49.30;;
35644;SDS011;21764;52.042;6.830;2023-11-21T04:11:06;152.70;;;46.58;;
35644;SDS011;21764;52.042;6.830;2023-11-21T04:16:07;718.55;;;55.45;;
35644;SDS011;21764;52.042;6.830;2023-11-21T04:21:08;553.55;;;54.17;;
35644;SDS011;21764;52.042;6.830;2023-11-21T04:26:09;588.83;;;54.20;;
35644;SDS011;21764;52.042;6.830;2023-11-21T04:31:24;535.42;;;54.33;;
35644;SDS011;21764;52.042;6.830;2023-11-21T04:36:25;610.03;;;58.00;;
35644;SDS011;21764;52.042;6.830;2023-11-21T04:41:26;442.40;;;49.60;;
35644;SDS011;21764;52.042;6.830;2023-11-21T04:46:27;525.83;;;56.03;;
35644;SDS011;21764;52.042;6.830;2023-11-21T04:51:28;652.58;;;58.95;;
35644;SDS011;21764;52.042;6.830;2023-11-21T04:56:29;404.85;;;52.63;;
35644;SDS011;21764;52.042;6.830;2023-11-21T05:01:30;338.52;;;51.28;;
35644;SDS011;21764;52.042;6.830;2023-11-21T05:06:32;318.10;;;52.00;;
35644;SDS011;21764;52.042;6.830;2023-11-21T05:11:33;575.72;;;54.47;;
35644;SDS011;21764;52.042;6.830;2023-11-21T05:16:34;620.25;;;59.55;;
35644;SDS011;21764;52.042;6.830;2023-11-21T05:21:35;308.70;;;52.90;;
35644;SDS011;21764;52.042;6.830;2023-11-21T05:26:36;291.17;;;51.03;;
35644;SDS011;21764;52.042;6.830;2023-11-21T05:31:38;264.10;;;50.00;;
35644;SDS011;21764;52.042;6.830;2023-11-21T05:36:39;231.07;;;48.90;;
35644;SDS011;21764;52.042;6.830;2023-11-21T05:41:41;309.77;;;53.03;;
35644;SDS011;21764;52.042;6.830;2023-11-21T05:46:42;244.38;;;46.22;;
35644;SDS011;21764;52.042;6.830;2023-11-21T05:51:43;182.90;;;44.45;;
35644;SDS011;21764;52.042;6.830;2023-11-21T05:56:45;171.82;;;44.55;;
35644;SDS011;21764;52.042;6.830;2023-11-21T06:01:47;151.27;;;45.70;;
35644;SDS011;21764;52.042;6.830;2023-11-21T06:06:50;236.60;;;47.67;;
35644;SDS011;21764;52.042;6.830;2023-11-21T06:11:52;153.68;;;44.70;;
35644;SDS011;21764;52.042;6.830;2023-11-21T06:16:53;294.20;;;49.58;;
35644;SDS011;21764;52.042;6.830;2023-11-21T06:21:56;239.48;;;47.75;;
35644;SDS011;21764;52.042;6.830;2023-11-21T06:26:57;173.38;;;45.30;;
35644;SDS011;21764;52.042;6.830;2023-11-21T06:31:58;192.57;;;45.08;;
35644;SDS011;21764;52.042;6.830;2023-11-21T06:36:59;354.67;;;49.28;;
35644;SDS011;21764;52.042;6.830;2023-11-21T06:42:00;264.05;;;48.15;;
35644;SDS011;21764;52.042;6.830;2023-11-21T06:47:01;387.75;;;51.95;;
35644;SDS011;21764;52.042;6.830;2023-11-21T06:52:03;334.58;;;49.28;;
35644;SDS011;21764;52.042;6.830;2023-11-21T06:57:04;271.73;;;47.85;;
35644;SDS011;21764;52.042;6.830;2023-11-21T07:02:05;508.38;;;52.38;;
35644;SDS011;21764;52.042;6.830;2023-11-21T07:07:06;646.08;;;56.50;;
35644;SDS011;21764;52.042;6.830;2023-11-21T07:12:07;388.30;;;49.10;;
35644;SDS011;21764;52.042;6.830;2023-11-21T07:17:09;490.27;;;51.67;;
35644;SDS011;21764;52.042;6.830;2023-11-21T07:22:10;418.90;;;52.65;;
35644;SDS011;21764;52.042;6.830;2023-11-21T07:27:11;244.00;;;50.88;;
35644;SDS011;21764;52.042;6.830;2023-11-21T07:32:12;331.17;;;51.38;;
35644;SDS011;21764;52.042;6.830;2023-11-21T07:37:15;184.98;;;47.67;;
35644;SDS011;21764;52.042;6.830;2023-11-21T07:42:16;240.77;;;48.88;;
35644;SDS011;21764;52.042;6.830;2023-11-21T07:47:18;232.60;;;46.60;;
35644;SDS011;21764;52.042;6.830;2023-11-21T07:52:19;252.68;;;47.88;;
35644;SDS011;21764;52.042;6.830;2023-11-21T07:57:21;176.00;;;43.72;;
35644;SDS011;21764;52.042;6.830;2023-11-21T08:02:22;151.48;;;45.42;;
35644;SDS011;21764;52.042;6.830;2023-11-21T08:07:23;217.45;;;45.88;;
35644;SDS011;21764;52.042;6.830;2023-11-21T08:12:24;172.07;;;45.28;;
35644;SDS011;21764;52.042;6.830;2023-11-21T08:17:26;189.95;;;45.33;;
35644;SDS011;21764;52.042;6.830;2023-11-21T08:22:27;163.65;;;47.67;;
35644;SDS011;21764;52.042;6.830;2023-11-21T08:27:29;165.05;;;46.90;;
35644;SDS011;21764;52.042;6.830;2023-11-21T08:32:30;132.07;;;44.95;;
35644;SDS011;21764;52.042;6.830;2023-11-21T08:37:33;138.00;;;45.85;;
35644;SDS011;21764;52.042;6.830;2023-11-21T08:42:37;127.17;;;45.27;;
35644;SDS011;21764;52.042;6.830;2023-11-21T08:47:38;125.65;;;44.00;;
35644;SDS011;21764;52.042;6.830;2023-11-21T08:52:39;118.88;;;44.30;;
35644;SDS011;21764;52.042;6.830;2023-11-21T08:57:41;114.90;;;42.65;;
35644;SDS011;21764;52.042;6.830;2023-11-21T09:02:44;125.35;;;44.72;;
35644;SDS011;21764;52.042;6.830;2023-11-21T09:07:45;112.40;;;43.58;;
35644;SDS011;21764;52.042;6.830;2023-11-21T09:12:46;120.40;;;44.45;;
35644;SDS011;21764;52.042;6.830;2023-11-21T09:17:47;119.47;;;45.97;;
35644;SDS011;21764;52.042;6.830;2023-11-21T09:22:48;171.25;;;49.75;;
35644;SDS011;21764;52.042;6.830;2023-11-21T09:27:50;136.85;;;47.13;;
35644;SDS011;21764;52.042;6.830;2023-11-21T09:32:51;113.00;;;42.53;;
35644;SDS011;21764;52.042;6.830;2023-11-21T09:37:52;114.00;;;42.35;;
35644;SDS011;21764;52.042;6.830;2023-11-21T09:42:54;104.88;;;42.03;;
35644;SDS011;21764;52.042;6.830;2023-11-21T09:47:56;112.47;;;42.20;;
35644;SDS011;21764;52.042;6.830;2023-11-21T09:58:02;90.07;;;38.97;;
35644;SDS011;21764;52.042;6.830;2023-11-21T10:03:03;91.72;;;38.28;;
35644;SDS011;21764;52.042;6.830;2023-11-21T10:08:07;89.78;;;37.88;;
35644;SDS011;21764;52.042;6.830;2023-11-21T10:13:10;90.80;;;41.17;;
35644;SDS011;21764;52.042;6.830;2023-11-21T10:18:12;94.80;;;38.70;;
35644;SDS011;21764;52.042;6.830;2023-11-21T10:23:15;85.60;;;35.55;;
35644;SDS011;21764;52.042;6.830;2023-11-21T10:28:16;81.05;;;35.95;;
35644;SDS011;21764;52.042;6.830;2023-11-21T10:33:17;75.63;;;33.35;;
35644;SDS011;21764;52.042;6.830;2023-11-21T10:38:18;65.35;;;28.58;;
35644;SDS011;21764;52.042;6.830;2023-11-21T10:43:24;60.40;;;27.25;;
35644;SDS011;21764;52.042;6.830;2023-11-21T10:48:26;54.83;;;26.75;;
35644;SDS011;21764;52.042;6.830;2023-11-21T10:53:28;50.40;;;26.25;;
35644;SDS011;21764;52.042;6.830;2023-11-21T10:58:29;53.42;;;28.13;;
35644;SDS011;21764;52.042;6.830;2023-11-21T11:03:32;45.45;;;22.50;;
35644;SDS011;21764;52.042;6.830;2023-11-21T11:08:36;36.75;;;20.95;;
35644;SDS011;21764;52.042;6.830;2023-11-21T11:13:37;38.38;;;21.27;;
35644;SDS011;21764;52.042;6.830;2023-11-21T11:18:39;37.30;;;21.05;;
35644;SDS011;21764;52.042;6.830;2023-11-21T11:38:49;36.92;;;18.85;;
35644;SDS011;21764;52.042;6.830;2023-11-21T11:43:50;35.13;;;18.80;;
35644;SDS011;21764;52.042;6.830;2023-11-21T11:49:02;39.22;;;20.60;;
35644;SDS011;21764;52.042;6.830;2023-11-21T11:54:03;40.55;;;21.88;;
35644;SDS011;21764;52.042;6.830;2023-11-21T11:59:06;42.97;;;21.88;;
35644;SDS011;21764;52.042;6.830;2023-11-21T12:09:34;38.17;;;21.47;;
35644;SDS011;21764;52.042;6.830;2023-11-21T12:14:35;39.95;;;21.73;;
35644;SDS011;21764;52.042;6.830;2023-11-21T12:19:37;41.65;;;21.95;;
35644;SDS011;21764;52.042;6.830;2023-11-21T12:24:38;38.72;;;20.08;;
35644;SDS011;21764;52.042;6.830;2023-11-21T12:29:40;43.75;;;20.27;;
35644;SDS011;21764;52.042;6.830;2023-11-21T12:34:41;43.83;;;22.23;;
35644;SDS011;21764;52.042;6.830;2023-11-21T12:39:42;41.05;;;21.08;;
35644;SDS011;21764;52.042;6.830;2023-11-21T12:44:45;45.13;;;23.20;;
35644;SDS011;21764;52.042;6.830;2023-11-21T12:49:47;43.30;;;20.60;;
35644;SDS011;21764;52.042;6.830;2023-11-21T12:54:48;44.83;;;21.35;;
35644;SDS011;21764;52.042;6.830;2023-11-21T12:59:49;43.35;;;21.20;;
35644;SDS011;21764;52.042;6.830;2023-11-21T13:04:54;42.75;;;21.13;;
35644;SDS011;21764;52.042;6.830;2023-11-21T13:09:57;43.00;;;22.20;;
35644;SDS011;21764;52.042;6.830;2023-11-21T13:15:03;46.50;;;23.15;;
35644;SDS011;21764;52.042;6.830;2023-11-21T13:20:06;42.70;;;20.92;;
35644;SDS011;21764;52.042;6.830;2023-11-21T13:25:16;38.05;;;20.10;;
35644;SDS011;21764;52.042;6.830;2023-11-21T13:30:17;34.08;;;19.90;;
35644;SDS011;21764;52.042;6.830;2023-11-21T13:35:28;37.65;;;19.88;;
35644;SDS011;21764;52.042;6.830;2023-11-21T13:40:38;35.78;;;22.08;;
35644;SDS011;21764;52.042;6.830;2023-11-21T13:45:49;35.38;;;21.35;;
35644;SDS011;21764;52.042;6.830;2023-11-21T13:50:55;41.22;;;23.58;;
35644;SDS011;21764;52.042;6.830;2023-11-21T13:55:58;41.78;;;22.88;;
35644;SDS011;21764;52.042;6.830;2023-11-21T14:01:00;46.40;;;22.27;;
35644;SDS011;21764;52.042;6.830;2023-11-21T14:06:06;31.42;;;19.77;;
35644;SDS011;21764;52.042;6.830;2023-11-21T14:11:21;28.65;;;18.60;;
35644;SDS011;21764;52.042;6.830;2023-11-21T14:16:24;27.55;;;18.73;;
35644;SDS011;21764;52.042;6.830;2023-11-21T14:21:25;29.85;;;19.25;;
35644;SDS011;21764;52.042;6.830;2023-11-21T14:26:30;25.80;;;17.33;;
35644;SDS011;21764;52.042;6.830;2023-11-21T14:31:31;24.27;;;16.45;;
35644;SDS011;21764;52.042;6.830;2023-11-21T14:36:32;28.25;;;18.77;;
35644;SDS011;21764;52.042;6.830;2023-11-21T14:41:35;23.88;;;16.10;;
35644;SDS011;21764;52.042;6.830;2023-11-21T14:46:46;26.95;;;16.73;;
35644;SDS011;21764;52.042;6.830;2023-11-21T14:51:51;24.63;;;16.77;;
35644;SDS011;21764;52.042;6.830;2023-11-21T14:57:11;21.60;;;14.73;;
35644;SDS011;21764;52.042;6.830;2023-11-21T15:02:25;21.63;;;13.45;;
35644;SDS011;21764;52.042;6.830;2023-11-21T15:07:48;21.10;;;13.57;;
35644;SDS011;21764;52.042;6.830;2023-11-21T15:12:58;21.05;;;12.32;;
35644;SDS011;21764;52.042;6.830;2023-11-21T15:18:04;16.77;;;12.10;;
35644;SDS011;21764;52.042;6.830;2023-11-21T15:23:06;18.55;;;12.15;;
35644;SDS011;21764;52.042;6.830;2023-11-21T15:28:08;18.52;;;12.50;;
35644;SDS011;21764;52.042;6.830;2023-11-21T15:33:09;19.50;;;11.85;;
35644;SDS011;21764;52.042;6.830;2023-11-21T15:38:14;43.70;;;18.35;;
35644;SDS011;21764;52.042;6.830;2023-11-21T15:43:16;17.13;;;11.07;;
35644;SDS011;21764;52.042;6.830;2023-11-21T15:48:18;17.08;;;12.05;;
35644;SDS011;21764;52.042;6.830;2023-11-21T15:53:19;20.20;;;12.85;;
35644;SDS011;21764;52.042;6.830;2023-11-21T15:58:21;19.58;;;13.13;;
35644;SDS011;21764;52.042;6.830;2023-11-21T16:03:22;22.52;;;13.43;;
35644;SDS011;21764;52.042;6.830;2023-11-21T16:08:23;19.20;;;12.38;;
35644;SDS011;21764;52.042;6.830;2023-11-21T16:13:26;20.35;;;13.77;;
35644;SDS011;21764;52.042;6.830;2023-11-21T16:18:27;26.17;;;14.05;;
35644;SDS011;21764;52.042;6.830;2023-11-21T16:23:30;23.33;;;15.57;;
35644;SDS011;21764;52.042;6.830;2023-11-21T16:28:31;27.15;;;16.30;;
35644;SDS011;21764;52.042;6.830;2023-11-21T16:33:33;23.98;;;16.08;;
35644;SDS011;21764;52.042;6.830;2023-11-21T16:38:34;19.60;;;14.63;;
35644;SDS011;21764;52.042;6.830;2023-11-21T16:43:35;22.90;;;15.90;;
35644;SDS011;21764;52.042;6.830;2023-11-21T16:48:36;24.17;;;16.88;;
35644;SDS011;21764;52.042;6.830;2023-11-21T16:53:38;25.05;;;16.50;;
35644;SDS011;21764;52.042;6.830;2023-11-21T16:58:42;27.67;;;17.10;;
35644;SDS011;21764;52.042;6.830;2023-11-21T17:03:45;28.50;;;16.95;;
35644;SDS011;21764;52.042;6.830;2023-11-21T17:08:46;26.58;;;18.83;;
35644;SDS011;21764;52.042;6.830;2023-11-21T17:13:47;30.67;;;20.15;;
35644;SDS011;21764;52.042;6.830;2023-11-21T17:18:48;28.23;;;19.48;;
35644;SDS011;21764;52.042;6.830;2023-11-21T17:23:50;43.33;;;23.23;;
35644;SDS011;21764;52.042;6.830;2023-11-21T17:28:53;32.22;;;18.98;;
35644;SDS011;21764;52.042;6.830;2023-11-21T17:33:56;31.67;;;19.80;;
35644;SDS011;21764;52.042;6.830;2023-11-21T17:38:57;24.85;;;18.27;;
35644;SDS011;21764;52.042;6.830;2023-11-21T17:43:58;26.13;;;17.48;;
35644;SDS011;21764;52.042;6.830;2023-11-21T17:49:02;28.45;;;19.02;;
35644;SDS011;21764;52.042;6.830;2023-11-21T17:54:05;31.25;;;21.35;;
35644;SDS011;21764;52.042;6.830;2023-11-21T17:59:06;28.60;;;17.90;;
35644;SDS011;21764;52.042;6.830;2023-11-21T18:04:09;29.70;;;21.17;;
35644;SDS011;21764;52.042;6.830;2023-11-21T18:09:12;26.75;;;17.95;;
35644;SDS011;21764;52.042;6.830;2023-11-21T18:14:15;26.83;;;17.88;;
35644;SDS011;21764;52.042;6.830;2023-11-21T18:19:16;24.70;;;16.20;;
35644;SDS011;21764;52.042;6.830;2023-11-21T18:24:19;25.88;;;16.23;;
35644;SDS011;21764;52.042;6.830;2023-11-21T18:29:20;22.80;;;14.32;;
35644;SDS011;21764;52.042;6.830;2023-11-21T18:34:24;21.98;;;14.15;;
35644;SDS011;21764;52.042;6.830;2023-11-21T18:39:26;18.83;;;13.73;;
35644;SDS011;21764;52.042;6.830;2023-11-21T18:44:27;22.98;;;14.80;;
35644;SDS011;21764;52.042;6.830;2023-11-21T18:49:30;27.05;;;15.55;;
35644;SDS011;21764;52.042;6.830;2023-11-21T18:54:32;22.13;;;15.30;;
35644;SDS011;21764;52.042;6.830;2023-11-21T18:59:36;26.85;;;17.85;;
35644;SDS011;21764;52.042;6.830;2023-11-21T19:04:38;25.83;;;16.23;;
35644;SDS011;21764;52.042;6.830;2023-11-21T19:09:40;21.83;;;14.88;;
35644;SDS011;21764;52.042;6.830;2023-11-21T19:14:44;20.90;;;14.48;;
35644;SDS011;21764;52.042;6.830;2023-11-21T19:19:47;25.67;;;15.65;;
35644;SDS011;21764;52.042;6.830;2023-11-21T19:24:48;28.27;;;15.73;;
35644;SDS011;21764;52.042;6.830;2023-11-21T19:29:50;29.33;;;17.58;;
35644;SDS011;21764;52.042;6.830;2023-11-21T19:34:51;30.90;;;17.80;;
35644;SDS011;21764;52.042;6.830;2023-11-21T19:39:54;30.65;;;18.02;;
35644;SDS011;21764;52.042;6.830;2023-11-21T19:44:55;29.15;;;17.77;;
35644;SDS011;21764;52.042;6.830;2023-11-21T19:49:56;26.50;;;16.88;;
35644;SDS011;21764;52.042;6.830;2023-11-21T19:54:57;31.63;;;18.58;;
35644;SDS011;21764;52.042;6.830;2023-11-21T19:59:59;31.27;;;19.98;;
35644;SDS011;21764;52.042;6.830;2023-11-21T20:05:01;32.55;;;18.50;;
35644;SDS011;21764;52.042;6.830;2023-11-21T20:10:02;34.58;;;21.20;;
35644;SDS011;21764;52.042;6.830;2023-11-21T20:15:04;36.78;;;21.98;;
35644;SDS011;21764;52.042;6.830;2023-11-21T20:20:06;35.00;;;21.95;;
35644;SDS011;21764;52.042;6.830;2023-11-21T20:25:07;35.67;;;22.40;;
35644;SDS011;21764;52.042;6.830;2023-11-21T20:30:09;34.42;;;20.65;;
35644;SDS011;21764;52.042;6.830;2023-11-21T20:35:10;37.90;;;21.80;;
35644;SDS011;21764;52.042;6.830;2023-11-21T20:40:12;35.95;;;21.08;;
35644;SDS011;21764;52.042;6.830;2023-11-21T20:45:13;35.80;;;21.70;;
35644;SDS011;21764;52.042;6.830;2023-11-21T20:50:14;39.67;;;21.13;;
35644;SDS011;21764;52.042;6.830;2023-11-21T20:55:18;40.83;;;21.42;;
35644;SDS011;21764;52.042;6.830;2023-11-21T21:00:19;41.65;;;22.17;;
35644;SDS011;21764;52.042;6.830;2023-11-21T21:05:22;36.92;;;21.33;;
35644;SDS011;21764;52.042;6.830;2023-11-21T21:10:26;42.55;;;23.05;;
35644;SDS011;21764;52.042;6.830;2023-11-21T21:15:28;46.53;;;25.08;;
35644;SDS011;21764;52.042;6.830;2023-11-21T21:20:29;57.50;;;27.15;;
35644;SDS011;21764;52.042;6.830;2023-11-21T21:25:30;52.90;;;25.77;;
35644;SDS011;21764;52.042;6.830;2023-11-21T21:30:32;59.35;;;32.35;;
35644;SDS011;21764;52.042;6.830;2023-11-21T21:35:33;57.70;;;32.60;;
35644;SDS011;21764;52.042;6.830;2023-11-21T21:40:36;54.30;;;29.10;;
35644;SDS011;21764;52.042;6.830;2023-11-21T21:45:37;48.28;;;24.90;;
35644;SDS011;21764;52.042;6.830;2023-11-21T21:50:39;46.10;;;24.58;;
35644;SDS011;21764;52.042;6.830;2023-11-21T21:55:40;43.38;;;25.77;;
35644;SDS011;21764;52.042;6.830;2023-11-21T22:00:42;43.63;;;25.08;;
35644;SDS011;21764;52.042;6.830;2023-11-21T22:05:43;48.17;;;24.23;;
35644;SDS011;21764;52.042;6.830;2023-11-21T22:10:44;42.63;;;23.35;;
35644;SDS011;21764;52.042;6.830;2023-11-21T22:15:45;50.72;;;24.48;;
35644;SDS011;21764;52.042;6.830;2023-11-21T22:20:46;48.58;;;24.75;;
35644;SDS011;21764;52.042;6.830;2023-11-21T22:25:47;44.33;;;23.52;;
35644;SDS011;21764;52.042;6.830;2023-11-21T22:30:48;44.83;;;24.02;;
35644;SDS011;21764;52.042;6.830;2023-11-21T22:35:50;51.08;;;24.60;;
35644;SDS011;21764;52.042;6.830;2023-11-21T22:40:51;54.67;;;24.23;;
35644;SDS011;21764;52.042;6.830;2023-11-21T22:45:52;48.65;;;25.13;;
35644;SDS011;21764;52.042;6.830;2023-11-21T22:50:53;46.28;;;23.98;;
35644;SDS011;21764;52.042;6.830;2023-11-21T22:55:54;46.20;;;24.90;;
35644;SDS011;21764;52.042;6.830;2023-11-21T23:00:55;52.28;;;27.08;;
35644;SDS011;21764;52.042;6.830;2023-11-21T23:05:57;49.75;;;25.42;;
35644;SDS011;21764;52.042;6.830;2023-11-21T23:10:58;52.00;;;25.75;;
35644;SDS011;21764;52.042;6.830;2023-11-21T23:16:00;58.67;;;27.95;;
35644;SDS011;21764;52.042;6.830;2023-11-21T23:21:01;51.67;;;26.10;;
35644;SDS011;21764;52.042;6.830;2023-11-21T23:26:02;53.55;;;26.40;;
35644;SDS011;21764;52.042;6.830;2023-11-21T23:31:03;54.75;;;26.48;;
35644;SDS011;21764;52.042;6.830;2023-11-21T23:36:05;54.40;;;25.23;;
35644;SDS011;21764;52.042;6.830;2023-11-21T23:41:06;55.47;;;26.55;;
35644;SDS011;21764;52.042;6.830;2023-11-21T23:46:07;54.15;;;26.73;;
35644;SDS011;21764;52.042;6.830;2023-11-21T23:51:10;59.28;;;26.63;;
35644;SDS011;21764;52.042;6.830;2023-11-21T23:56:11;53.28;;;26.65;;
